createdAt,value
2022-10-07T00:02:09.164Z,65.97
2022-10-07T00:04:46.432Z,65.99
2022-10-07T00:07:18.869Z,66.87
2022-10-07T00:09:50.834Z,66.86
2022-10-07T00:12:23.184Z,66.22
2022-10-07T00:14:55.329Z,66.02
2022-10-07T00:17:28.845Z,66.00
2022-10-07T00:20:01.689Z,65.58
2022-10-07T00:22:33.755Z,65.06
2022-10-07T00:25:06.059Z,64.92
2022-10-07T00:27:38.030Z,65.13
2022-10-07T00:30:11.856Z,65.04
2022-10-07T00:32:43.918Z,65.08
2022-10-07T00:35:16.624Z,65.11
2022-10-07T00:37:49.128Z,64.93
2022-10-07T00:40:22.820Z,65.04
2022-10-07T00:42:54.751Z,64.89
2022-10-07T00:45:26.933Z,65.15
2022-10-07T00:47:59.621Z,65.99
2022-10-07T00:50:32.146Z,66.03
2022-10-07T00:53:05.802Z,66.21
2022-10-07T00:55:38.046Z,67.04
2022-10-07T00:58:11.838Z,66.94
2022-10-07T01:00:53.115Z,66.29
2022-10-07T01:03:25.326Z,66.15
2022-10-07T01:05:57.315Z,66.32
2022-10-07T01:08:30.638Z,66.21
2022-10-07T01:11:14.980Z,65.94
2022-10-07T01:14:01.189Z,65.49
2022-10-07T01:16:40.981Z,65.48
2022-10-07T01:19:36.327Z,65.26
2022-10-07T01:22:17.590Z,65.35
2022-10-07T01:24:56.808Z,66.11
2022-10-07T01:27:30.780Z,66.16
2022-10-07T01:30:05.719Z,66.06
2022-10-07T01:32:44.505Z,65.57
2022-10-07T01:35:20.897Z,65.46
2022-10-07T01:37:57.518Z,65.32
2022-10-07T01:40:35.126Z,65.35
2022-10-07T01:43:08.460Z,65.40
2022-10-07T01:45:42.832Z,66.06
2022-10-07T01:48:14.973Z,66.44
2022-10-07T01:50:48.287Z,66.15
2022-10-07T01:53:35.141Z,66.57
2022-10-07T02:04:55.264Z,65.70
2022-10-07T02:12:23.114Z,65.21
2022-10-07T02:34:17.505Z,66.32
2022-10-07T02:41:46.168Z,66.49
2022-10-07T03:27:29.058Z,66.44
2022-10-07T03:30:01.788Z,66.52
2022-10-07T03:32:34.220Z,66.79
2022-10-07T03:35:07.242Z,66.51
2022-10-07T03:37:39.424Z,66.35
2022-10-07T03:40:13.196Z,66.38
2022-10-07T03:42:45.182Z,66.36
2022-10-07T03:45:17.376Z,66.37
2022-10-07T03:47:49.714Z,66.74
2022-10-07T03:50:22.051Z,66.39
2022-10-07T03:52:55.818Z,67.04
2022-10-07T03:55:27.757Z,67.11
2022-10-07T03:58:00.044Z,67.40
2022-10-07T04:00:33.722Z,67.20
2022-10-07T04:03:07.803Z,65.77
2022-10-07T04:05:40.190Z,65.48
2022-10-07T04:08:17.570Z,65.74
2022-10-07T04:10:50.171Z,65.74
2022-10-07T04:13:22.260Z,64.58
2022-10-07T04:15:54.986Z,64.68
2022-10-07T04:18:27.661Z,65.15
2022-10-07T04:21:03.483Z,65.06
2022-10-07T04:23:37.095Z,63.40
2022-10-07T04:26:12.294Z,63.23
2022-10-07T04:28:49.330Z,63.88
2022-10-07T04:31:26.760Z,63.40
2022-10-07T04:34:03.221Z,62.52
2022-10-07T04:36:40.742Z,63.18
2022-10-07T04:39:15.415Z,63.44
2022-10-07T04:41:54.782Z,62.93
2022-10-07T04:44:29.915Z,62.60
2022-10-07T04:47:09.668Z,62.86
2022-10-07T04:49:42.997Z,63.24
2022-10-07T04:52:15.224Z,63.25
2022-10-07T04:54:48.384Z,63.44
2022-10-07T04:57:20.721Z,63.39
2022-10-07T04:59:53.963Z,63.62
2022-10-07T05:02:26.867Z,63.30
2022-10-07T05:05:00.034Z,63.56
2022-10-07T05:07:33.464Z,63.94
2022-10-07T05:10:06.600Z,64.10
2022-10-07T05:12:41.276Z,64.19
2022-10-07T05:15:14.002Z,64.54
2022-10-07T05:17:46.519Z,64.75
2022-10-07T05:20:19.114Z,65.02
2022-10-07T05:22:52.381Z,65.70
2022-10-07T05:25:24.816Z,65.38
2022-10-07T05:27:56.953Z,64.56
2022-10-07T05:30:29.144Z,64.40
2022-10-07T05:33:01.595Z,64.69
2022-10-07T05:35:35.208Z,64.29
2022-10-07T05:38:08.634Z,64.27
2022-10-07T05:40:40.683Z,64.74
2022-10-07T05:43:14.037Z,64.43
2022-10-07T05:45:47.810Z,64.61
2022-10-07T05:48:19.744Z,64.15
2022-10-07T05:50:51.692Z,63.73
2022-10-07T05:53:23.969Z,64.03
2022-10-07T05:55:57.043Z,63.98
2022-10-07T05:58:29.974Z,64.16
2022-10-07T06:01:08.725Z,64.80
2022-10-07T06:03:44.771Z,64.94
2022-10-07T06:06:17.560Z,64.86
2022-10-07T06:08:50.283Z,64.96
2022-10-07T06:11:40.654Z,65.31
2022-10-07T06:14:12.982Z,65.35
2022-10-07T06:16:45.213Z,65.57
2022-10-07T06:19:22.945Z,65.98
2022-10-07T06:21:56.413Z,66.16
2022-10-07T06:24:29.253Z,66.23
2022-10-07T06:27:01.392Z,66.44
2022-10-07T06:29:33.502Z,66.66
2022-10-07T06:32:06.055Z,66.90
2022-10-07T06:34:38.918Z,67.13
2022-10-07T06:37:11.395Z,67.59
2022-10-07T06:39:44.669Z,68.02
2022-10-07T06:42:17.607Z,68.62
2022-10-07T06:45:12.370Z,70.38
2022-10-07T06:47:44.988Z,71.66
2022-10-07T06:50:17.587Z,72.67
2022-10-07T06:52:50.546Z,73.02
2022-10-07T06:55:22.793Z,73.86
2022-10-07T06:57:55.461Z,74.30
2022-10-07T07:00:27.485Z,74.89
2022-10-07T07:03:01.691Z,75.72
2022-10-07T07:05:41.429Z,75.82
2022-10-07T07:08:18.342Z,76.47
2022-10-07T07:10:50.761Z,75.61
2022-10-07T07:13:24.814Z,76.36
2022-10-07T07:16:00.648Z,76.71
2022-10-07T07:18:35.567Z,76.85
2022-10-07T07:33:19.324Z,76.64
2022-10-07T07:35:51.979Z,76.16
2022-10-07T07:38:25.550Z,75.79
2022-10-07T07:40:58.445Z,75.67
2022-10-07T07:43:30.598Z,75.84
2022-10-07T07:46:03.284Z,75.67
2022-10-07T07:48:36.240Z,76.07
2022-10-07T07:51:53.593Z,75.97
2022-10-07T07:54:31.320Z,75.93
2022-10-07T07:57:47.697Z,74.40
2022-10-07T08:00:29.773Z,74.35
2022-10-07T08:03:05.440Z,74.06
2022-10-07T08:05:39.410Z,73.15
2022-10-07T08:08:14.672Z,73.04
2022-10-07T08:10:51.118Z,72.70
2022-10-07T08:13:24.971Z,73.05
2022-10-07T08:16:04.147Z,73.08
2022-10-07T08:18:36.164Z,72.84
2022-10-07T08:21:09.241Z,71.75
2022-10-07T08:23:42.944Z,71.69
2022-10-07T08:26:15.759Z,70.91
2022-10-07T08:28:49.137Z,69.69
2022-10-07T08:31:22.941Z,69.15
2022-10-07T08:33:55.953Z,68.00
2022-10-07T08:36:32.725Z,67.75
2022-10-07T08:39:06.616Z,66.63
2022-10-07T08:41:47.056Z,66.30
2022-10-07T08:44:24.719Z,65.94
2022-10-07T08:47:03.129Z,65.65
2022-10-07T08:49:43.859Z,64.72
2022-10-07T08:52:32.753Z,64.15
2022-10-07T08:55:10.846Z,63.82
2022-10-07T08:57:52.888Z,64.00
2022-10-07T09:00:25.829Z,63.86
2022-10-07T09:03:11.444Z,63.15
2022-10-07T09:05:46.558Z,62.41
2022-10-07T09:08:28.620Z,62.18
2022-10-07T09:11:15.950Z,61.97
2022-10-07T09:14:59.382Z,61.86
2022-10-07T09:18:00.679Z,62.05
2022-10-07T09:20:38.982Z,62.13
2022-10-07T09:23:16.493Z,61.72
2022-10-07T09:25:48.573Z,61.56
2022-10-07T09:28:25.349Z,61.22
2022-10-07T09:30:57.884Z,61.08
2022-10-07T09:33:30.838Z,60.58
2022-10-07T09:36:10.558Z,60.40
2022-10-07T09:38:44.411Z,59.96
2022-10-07T09:41:21.468Z,59.84
2022-10-07T09:44:03.859Z,58.43
2022-10-07T09:46:43.449Z,58.35
2022-10-07T09:49:36.202Z,58.77
2022-10-07T09:52:18.405Z,58.02
2022-10-07T09:54:52.637Z,57.18
2022-10-07T09:57:31.754Z,57.77
2022-10-07T10:00:23.528Z,57.30
2022-10-07T10:03:05.286Z,57.16
2022-10-07T10:05:40.315Z,57.53
2022-10-07T10:08:29.519Z,57.46
2022-10-07T10:11:03.739Z,56.12
2022-10-07T10:13:38.402Z,56.50
2022-10-07T10:16:36.085Z,55.86
2022-10-07T10:19:22.350Z,55.34
2022-10-07T10:21:56.347Z,55.27
2022-10-07T10:24:50.055Z,54.86
2022-10-07T10:27:27.566Z,54.31
2022-10-07T10:30:05.691Z,54.68
2022-10-07T10:33:01.263Z,54.48
2022-10-07T10:35:40.284Z,54.17
2022-10-07T10:38:37.465Z,53.78
2022-10-07T10:41:20.598Z,53.78
2022-10-07T10:44:13.600Z,53.03
2022-10-07T10:46:54.879Z,52.95
2022-10-07T10:49:36.175Z,51.35
2022-10-07T10:52:25.943Z,51.03
2022-10-07T10:55:12.549Z,51.58
2022-10-07T10:58:00.052Z,50.14
2022-10-07T11:00:46.090Z,50.78
2022-10-07T11:03:25.679Z,50.85
2022-10-07T11:05:59.151Z,50.85
2022-10-07T11:08:38.402Z,50.67
2022-10-07T11:11:13.668Z,50.99
2022-10-07T11:13:48.082Z,51.03
2022-10-07T11:16:26.055Z,51.32
2022-10-07T11:19:00.921Z,51.27
2022-10-07T11:21:38.493Z,50.46
2022-10-07T11:24:15.436Z,50.79
2022-10-07T11:26:53.939Z,50.77
2022-10-07T11:29:33.759Z,50.71
2022-10-07T11:32:13.585Z,50.73
2022-10-07T11:34:54.562Z,51.17
2022-10-07T11:37:34.912Z,50.52
2022-10-07T11:40:09.476Z,50.90
2022-10-07T11:42:46.618Z,50.15
2022-10-07T11:45:25.228Z,49.56
2022-10-07T11:48:00.767Z,48.60
2022-10-07T11:50:37.960Z,48.83
2022-10-07T11:53:15.839Z,49.58
2022-10-07T11:55:55.240Z,49.20
2022-10-07T11:58:32.804Z,48.93
2022-10-07T12:01:42.051Z,49.48
2022-10-07T12:04:42.177Z,47.86
2022-10-07T12:07:38.954Z,48.09
2022-10-07T12:10:37.122Z,48.72
2022-10-07T12:13:39.956Z,49.00
2022-10-07T12:16:55.186Z,49.59
2022-10-07T12:19:27.723Z,49.48
2022-10-07T12:22:21.604Z,49.62
2022-10-07T12:25:24.517Z,50.40
2022-10-07T12:27:57.799Z,48.67
2022-10-07T12:30:50.114Z,48.51
2022-10-07T12:33:35.099Z,49.15
2022-10-07T12:36:29.430Z,49.71
2022-10-07T12:39:35.469Z,48.68
2022-10-07T12:42:14.523Z,48.90
2022-10-07T12:44:51.395Z,48.44
2022-10-07T12:47:28.232Z,48.17
2022-10-07T12:50:04.857Z,47.54
2022-10-07T12:52:44.928Z,46.25
2022-10-07T12:55:21.138Z,46.70
2022-10-07T12:58:15.919Z,47.73
2022-10-07T13:01:00.003Z,46.76
2022-10-07T13:03:56.776Z,46.55
2022-10-07T13:06:57.755Z,46.43
2022-10-07T13:09:58.879Z,46.00
2022-10-07T13:12:41.142Z,47.18
2022-10-07T13:15:27.667Z,47.79
2022-10-07T13:18:10.930Z,48.00
2022-10-07T13:21:12.525Z,47.62
2022-10-07T13:23:53.296Z,48.30
2022-10-07T13:26:27.044Z,47.85
2022-10-07T13:29:01.338Z,47.82
2022-10-07T13:31:34.765Z,47.61
2022-10-07T13:34:19.068Z,46.72
2022-10-07T13:36:51.334Z,46.71
2022-10-07T13:39:24.386Z,46.99
2022-10-07T13:41:58.604Z,46.81
2022-10-07T13:44:33.449Z,46.61
2022-10-07T13:47:11.961Z,46.90
2022-10-07T13:49:47.246Z,46.23
2022-10-07T13:52:29.499Z,46.06
2022-10-07T13:55:01.363Z,44.98
2022-10-07T13:57:36.040Z,44.01
2022-10-07T14:00:12.717Z,43.56
2022-10-07T14:02:46.112Z,43.16
2022-10-07T14:05:23.872Z,43.54
2022-10-07T14:07:58.188Z,43.91
2022-10-07T14:10:32.688Z,43.44
2022-10-07T14:13:07.338Z,42.94
2022-10-07T14:15:47.930Z,43.04
2022-10-07T14:18:20.079Z,43.74
2022-10-07T14:20:55.324Z,44.45
2022-10-07T14:23:32.943Z,45.50
2022-10-07T14:26:06.260Z,45.45
2022-10-07T14:28:39.880Z,44.89
2022-10-07T14:31:40.145Z,45.03
2022-10-07T14:34:36.425Z,46.74
2022-10-07T14:37:10.037Z,46.81
2022-10-07T14:39:44.249Z,47.59
2022-10-07T14:42:18.850Z,47.76
2022-10-07T14:44:55.001Z,48.07
2022-10-07T14:47:28.575Z,48.08
2022-10-07T14:50:01.466Z,48.63
2022-10-07T14:52:43.487Z,49.15
2022-10-07T14:55:23.338Z,49.39
2022-10-07T14:57:55.728Z,49.23
2022-10-07T15:00:32.927Z,49.11
2022-10-07T15:03:08.231Z,49.61
2022-10-07T15:05:40.535Z,49.84
2022-10-07T15:08:13.356Z,49.70
2022-10-07T15:10:46.257Z,49.88
2022-10-07T15:13:18.760Z,50.16
2022-10-07T15:15:51.509Z,50.18
2022-10-07T15:18:23.676Z,50.33
2022-10-07T15:20:59.531Z,50.46
2022-10-07T15:23:31.732Z,51.11
2022-10-07T15:26:04.006Z,50.77
2022-10-07T15:28:36.585Z,50.78
2022-10-07T15:31:10.797Z,51.46
2022-10-07T15:33:42.836Z,51.86
2022-10-07T15:36:15.331Z,52.37
2022-10-07T15:38:47.173Z,52.61
2022-10-07T15:41:34.004Z,52.79
2022-10-07T15:44:08.870Z,53.30
2022-10-07T15:46:40.952Z,53.75
2022-10-07T15:49:13.518Z,53.65
2022-10-07T15:51:46.796Z,54.04
2022-10-07T15:54:20.904Z,55.30
2022-10-07T15:56:53.215Z,56.77
2022-10-07T15:59:25.191Z,55.86
2022-10-07T16:01:57.453Z,56.70
2022-10-07T16:04:30.185Z,57.14
2022-10-07T16:07:05.445Z,58.08
2022-10-07T16:09:37.447Z,58.01
2022-10-07T16:12:09.851Z,57.91
2022-10-07T16:15:20.022Z,58.22
2022-10-07T16:17:53.330Z,58.58
2022-10-07T16:20:25.369Z,58.30
2022-10-07T16:22:57.376Z,58.67
2022-10-07T16:25:29.462Z,58.55
2022-10-07T16:28:20.287Z,58.86
2022-10-07T16:30:52.356Z,59.24
2022-10-07T16:33:25.118Z,59.03
2022-10-07T16:35:58.390Z,59.09
2022-10-07T16:38:30.285Z,59.27
2022-10-07T16:41:02.379Z,59.52
2022-10-07T16:43:35.943Z,59.68
2022-10-07T16:46:16.760Z,59.88
2022-10-07T16:59:19.712Z,60.62
2022-10-07T17:01:56.530Z,60.98
2022-10-07T17:04:27.583Z,61.46
2022-10-07T17:06:59.832Z,61.46
2022-10-07T17:09:33.403Z,61.29
2022-10-07T17:12:07.037Z,61.54
2022-10-07T17:14:39.066Z,62.08
2022-10-07T17:17:11.628Z,62.26
2022-10-07T17:19:44.688Z,62.17
2022-10-07T17:22:16.726Z,62.47
2022-10-07T17:24:50.686Z,62.39
2022-10-07T17:27:22.652Z,62.22
2022-10-07T17:29:55.766Z,62.29
2022-10-07T17:32:28.319Z,62.18
2022-10-07T17:35:00.476Z,62.34
2022-10-07T17:37:34.350Z,62.87
2022-10-07T17:40:07.888Z,62.83
2022-10-07T17:42:39.991Z,63.11
2022-10-07T17:45:13.431Z,62.80
2022-10-07T17:47:46.071Z,62.85
2022-10-07T17:50:18.401Z,62.83
2022-10-07T17:52:51.505Z,63.14
2022-10-07T17:55:24.030Z,63.59
2022-10-07T17:57:56.207Z,63.64
2022-10-07T18:00:28.423Z,64.38
2022-10-07T18:03:01.305Z,64.48
2022-10-07T18:10:17.694Z,64.81
2022-10-07T18:13:07.956Z,64.97
2022-10-07T18:15:39.783Z,65.32
2022-10-07T18:18:11.847Z,64.93
2022-10-07T18:20:44.018Z,65.10
2022-10-07T18:23:17.351Z,65.22
2022-10-07T18:25:49.855Z,65.30
2022-10-07T18:28:22.139Z,65.32
2022-10-07T18:30:55.081Z,65.19
2022-10-07T18:33:27.642Z,65.37
2022-10-07T18:47:23.731Z,66.23
2022-10-07T18:49:57.281Z,65.85
2022-10-07T18:52:29.604Z,65.78
2022-10-07T18:55:01.725Z,66.40
2022-10-07T18:57:33.795Z,66.60
2022-10-07T19:00:08.390Z,66.35
2022-10-07T19:02:40.450Z,66.57
2022-10-07T19:05:12.716Z,67.11
2022-10-07T19:07:44.883Z,67.25
2022-10-07T19:10:17.064Z,67.07
2022-10-07T19:13:06.532Z,67.68
2022-10-07T19:15:40.060Z,67.52
2022-10-07T19:18:13.319Z,67.47
2022-10-07T19:20:54.857Z,67.95
2022-10-07T19:23:27.272Z,67.46
2022-10-07T19:26:01.869Z,67.82
2022-10-07T19:28:35.315Z,67.79
2022-10-07T19:31:16.836Z,67.70
2022-10-07T19:33:50.665Z,67.48
2022-10-07T19:36:25.611Z,67.35
2022-10-07T19:38:58.510Z,67.51
2022-10-07T19:41:33.316Z,67.37
2022-10-07T19:44:06.531Z,67.08
2022-10-07T19:46:39.429Z,67.42
2022-10-07T19:49:12.048Z,67.63
2022-10-07T19:51:45.009Z,68.04
2022-10-07T19:54:17.257Z,68.05
2022-10-07T19:56:49.632Z,68.20
2022-10-07T19:59:22.209Z,68.60
2022-10-07T20:01:58.801Z,68.18
2022-10-07T20:04:33.521Z,68.41
2022-10-07T20:07:05.676Z,68.00
2022-10-07T20:09:37.814Z,67.96
2022-10-07T20:12:10.098Z,67.95
2022-10-07T20:14:41.983Z,67.81
2022-10-07T20:17:14.148Z,67.44
2022-10-07T20:19:46.248Z,67.37
2022-10-07T20:22:18.658Z,67.18
2022-10-07T20:24:50.551Z,67.34
2022-10-07T20:27:22.565Z,67.50
2022-10-07T20:30:02.471Z,68.43
2022-10-07T20:32:35.615Z,67.88
2022-10-07T20:35:10.790Z,67.77
2022-10-07T20:37:45.905Z,67.96
2022-10-07T20:40:36.808Z,68.20
2022-10-07T20:43:08.784Z,69.35
2022-10-07T20:45:54.847Z,69.54
2022-10-07T20:48:29.169Z,70.04
2022-10-07T20:51:08.362Z,70.14
2022-10-07T20:53:40.352Z,69.65
2022-10-07T20:56:13.506Z,69.24
2022-10-07T20:58:46.074Z,69.09
2022-10-07T21:01:18.025Z,69.02
2022-10-07T21:03:49.975Z,69.03
2022-10-07T21:06:22.130Z,68.81
2022-10-07T21:08:57.903Z,69.38
2022-10-07T21:11:30.853Z,69.13
2022-10-07T21:14:03.006Z,68.78
2022-10-07T21:16:36.480Z,68.80
2022-10-07T21:19:08.565Z,68.37
2022-10-07T21:21:40.944Z,68.33
2022-10-07T21:24:13.494Z,67.97
2022-10-07T21:26:46.052Z,68.09
2022-10-07T21:29:19.015Z,67.80
2022-10-07T21:31:53.187Z,67.78
2022-10-07T21:34:26.206Z,67.11
2022-10-07T21:36:59.194Z,67.27
2022-10-07T21:39:31.838Z,68.02
2022-10-07T21:42:04.217Z,68.06
2022-10-07T21:44:36.506Z,67.34
2022-10-07T21:47:08.438Z,67.60
2022-10-07T21:49:41.235Z,67.78
2022-10-07T21:52:13.255Z,67.91
2022-10-07T21:54:45.369Z,67.74
2022-10-07T21:57:17.342Z,67.91
2022-10-07T21:59:49.421Z,67.93
2022-10-07T22:02:21.519Z,67.94
2022-10-07T22:04:53.704Z,67.93
2022-10-07T22:07:43.181Z,67.48
2022-10-07T22:10:15.384Z,68.30
2022-10-07T22:12:47.591Z,68.51
2022-10-07T22:15:21.020Z,68.35
2022-10-07T22:17:53.062Z,69.43
2022-10-07T22:20:25.198Z,71.21
2022-10-07T22:22:59.981Z,70.79
2022-10-07T22:25:32.420Z,70.20
2022-10-07T22:28:04.436Z,69.97
2022-10-07T22:30:39.422Z,69.92
2022-10-07T22:33:15.223Z,69.94
2022-10-07T22:35:47.661Z,68.82
2022-10-07T22:38:20.410Z,68.71
2022-10-07T22:40:52.677Z,68.54
2022-10-07T22:44:00.083Z,68.81
2022-10-07T22:46:40.297Z,68.89
2022-10-07T22:49:29.567Z,69.16
2022-10-07T22:52:03.370Z,69.17
2022-10-07T22:54:35.305Z,69.18
2022-10-07T22:57:07.893Z,69.19
2022-10-07T23:00:26.654Z,69.14
2022-10-07T23:03:03.453Z,69.01
2022-10-07T23:06:06.034Z,68.86
2022-10-07T23:08:59.094Z,68.60
2022-10-07T23:11:32.359Z,68.85
2022-10-07T23:14:20.613Z,69.13
2022-10-07T23:16:52.613Z,69.36
2022-10-07T23:20:45.754Z,69.24
2022-10-07T23:23:35.695Z,69.52
2022-10-07T23:26:11.436Z,69.74
2022-10-07T23:28:43.763Z,69.95
2022-10-07T23:32:24.369Z,70.20
2022-10-07T23:34:51.941Z,70.71
2022-10-07T23:37:26.775Z,70.03
2022-10-07T23:40:16.954Z,69.86
2022-10-07T23:42:49.601Z,70.25
2022-10-07T23:45:22.069Z,70.45
2022-10-07T23:47:54.316Z,69.90
2022-10-07T23:50:27.851Z,69.91
2022-10-07T23:53:00.182Z,69.96
2022-10-07T23:56:18.727Z,69.91
2022-10-07T23:59:54.283Z,70.20
